Search for airport 
image banner adimage banner adimage banner ad
image banner ad

80CA - Bacchi Valley Industries

Located in Lotus, United States

ICAO - 80CA, IATA -

Data provided by Airmate  

General information

Coordinates: N38°49'3" W120°55'21"
Elevation is 760 feet MSL.
Magnetic variation is 16° East
View others Airports in California

Operational data

Special qualification required
Current time UTC:
Current local time:
Weather at : KPVF - Placerville ( 18 km )
METAR: KPVF 221255Z AUTO 00000KT 10SM CLR 15/07 A2995 RMK AO1
View NOTAMs / SUP AIP / TFR affecting this airport [VIEW]
Communications frequencies: [VIEW]

Runways:

RWY identifierQFULength (ft)Width (ft)SurfaceLDA (ft)
NW180040OTHER
SE180040OTHER

Airport contact information

Address: Lotus United States

Satellite view of 80CA